sensor_id;sensor_type;location;lat;lon;timestamp;pressure;altitude;pressure_sealevel;temperature;humidity
6506;BME280;3286;49.858;8.768;2023-04-01T00:02:25;97564.88;;;10.20;58.33
6506;BME280;3286;49.858;8.768;2023-04-01T00:04:52;97557.09;;;10.83;56.49
6506;BME280;3286;49.858;8.768;2023-04-01T00:07:18;97567.41;;;10.50;56.75
6506;BME280;3286;49.858;8.768;2023-04-01T00:09:45;97546.09;;;10.80;56.08
6506;BME280;3286;49.858;8.768;2023-04-01T00:12:12;97551.56;;;10.06;57.97
6506;BME280;3286;49.858;8.768;2023-04-01T00:14:38;97549.94;;;10.49;57.90
6506;BME280;3286;49.858;8.768;2023-04-01T00:17:05;97543.66;;;10.50;57.50
6506;BME280;3286;49.858;8.768;2023-04-01T00:19:33;97543.19;;;10.03;58.11
6506;BME280;3286;49.858;8.768;2023-04-01T00:22:00;97541.41;;;10.47;57.38
6506;BME280;3286;49.858;8.768;2023-04-01T00:24:27;97541.78;;;10.43;56.92
6506;BME280;3286;49.858;8.768;2023-04-01T00:26:54;97537.78;;;10.33;57.31
6506;BME280;3286;49.858;8.768;2023-04-01T00:29:21;97534.97;;;10.56;56.48
6506;BME280;3286;49.858;8.768;2023-04-01T00:31:49;97526.22;;;10.55;57.03
6506;BME280;3286;49.858;8.768;2023-04-01T00:34:15;97535.53;;;10.51;57.24
6506;BME280;3286;49.858;8.768;2023-04-01T00:36:43;97534.16;;;10.34;57.41
6506;BME280;3286;49.858;8.768;2023-04-01T00:39:10;97539.13;;;10.00;57.94
6506;BME280;3286;49.858;8.768;2023-04-01T00:41:37;97546.31;;;9.91;58.57
6506;BME280;3286;49.858;8.768;2023-04-01T00:44:19;97549.75;;;10.79;56.06
6506;BME280;3286;49.858;8.768;2023-04-01T00:46:46;97529.91;;;10.61;56.49
6506;BME280;3286;49.858;8.768;2023-04-01T00:49:14;97541.56;;;10.45;56.16
6506;BME280;3286;49.858;8.768;2023-04-01T00:51:41;97550.59;;;10.57;56.30
6506;BME280;3286;49.858;8.768;2023-04-01T00:54:11;97532.25;;;10.49;56.09
6506;BME280;3286;49.858;8.768;2023-04-01T00:56:41;97530.38;;;10.71;55.81
6506;BME280;3286;49.858;8.768;2023-04-01T00:59:18;97534.00;;;9.98;57.41
6506;BME280;3286;49.858;8.768;2023-04-01T01:01:45;97538.38;;;10.06;57.37
6506;BME280;3286;49.858;8.768;2023-04-01T01:04:21;97535.91;;;10.26;56.46
6506;BME280;3286;49.858;8.768;2023-04-01T01:06:56;97531.50;;;10.34;56.41
6506;BME280;3286;49.858;8.768;2023-04-01T01:09:33;97535.81;;;9.98;57.39
6506;BME280;3286;49.858;8.768;2023-04-01T01:12:08;97531.47;;;10.77;55.70
6506;BME280;3286;49.858;8.768;2023-04-01T01:14:48;97540.69;;;10.88;55.32
6506;BME280;3286;49.858;8.768;2023-04-01T01:17:22;97530.38;;;11.00;55.26
6506;BME280;3286;49.858;8.768;2023-04-01T01:25:59;97527.22;;;11.18;54.48
6506;BME280;3286;49.858;8.768;2023-04-01T01:28:44;97534.34;;;10.82;55.60
6506;BME280;3286;49.858;8.768;2023-04-01T01:31:19;97519.75;;;10.58;55.68
6506;BME280;3286;49.858;8.768;2023-04-01T01:34:04;97525.53;;;10.25;55.96
6506;BME280;3286;49.858;8.768;2023-04-01T01:36:38;97517.75;;;10.17;56.92
6506;BME280;3286;49.858;8.768;2023-04-01T01:39:09;97523.09;;;10.45;56.30
6506;BME280;3286;49.858;8.768;2023-04-01T01:41:38;97529.34;;;10.66;55.35
6506;BME280;3286;49.858;8.768;2023-04-01T01:44:07;97529.44;;;10.51;55.91
6506;BME280;3286;49.858;8.768;2023-04-01T01:46:35;97535.06;;;10.26;56.39
6506;BME280;3286;49.858;8.768;2023-04-01T01:49:05;97536.66;;;10.20;56.95
6506;BME280;3286;49.858;8.768;2023-04-01T01:51:34;97531.00;;;10.67;55.79
6506;BME280;3286;49.858;8.768;2023-04-01T01:54:02;97533.44;;;10.25;56.67
6506;BME280;3286;49.858;8.768;2023-04-01T01:56:29;97536.69;;;10.70;55.31
6506;BME280;3286;49.858;8.768;2023-04-01T01:59:00;97535.63;;;11.35;53.51
6506;BME280;3286;49.858;8.768;2023-04-01T02:01:29;97542.09;;;11.26;53.51
6506;BME280;3286;49.858;8.768;2023-04-01T02:03:58;97540.16;;;10.71;55.20
6506;BME280;3286;49.858;8.768;2023-04-01T02:06:27;97541.31;;;10.90;54.32
6506;BME280;3286;49.858;8.768;2023-04-01T02:08:57;97536.31;;;11.02;54.10
6506;BME280;3286;49.858;8.768;2023-04-01T02:11:30;97529.50;;;10.86;54.83
6506;BME280;3286;49.858;8.768;2023-04-01T02:14:01;97532.25;;;11.06;53.85
6506;BME280;3286;49.858;8.768;2023-04-01T02:16:32;97531.88;;;10.81;54.94
6506;BME280;3286;49.858;8.768;2023-04-01T02:19:02;97535.34;;;11.16;54.49
6506;BME280;3286;49.858;8.768;2023-04-01T02:21:33;97536.88;;;11.33;54.13
6506;BME280;3286;49.858;8.768;2023-04-01T02:24:04;97536.81;;;11.26;54.01
6506;BME280;3286;49.858;8.768;2023-04-01T02:26:34;97546.00;;;10.95;54.51
6506;BME280;3286;49.858;8.768;2023-04-01T02:29:01;97537.09;;;11.38;54.09
6506;BME280;3286;49.858;8.768;2023-04-01T02:31:30;97536.72;;;11.06;54.57
6506;BME280;3286;49.858;8.768;2023-04-01T02:33:58;97539.06;;;11.22;54.04
6506;BME280;3286;49.858;8.768;2023-04-01T02:36:25;97538.13;;;11.01;54.30
6506;BME280;3286;49.858;8.768;2023-04-01T02:38:52;97532.53;;;10.83;55.10
6506;BME280;3286;49.858;8.768;2023-04-01T02:41:20;97534.56;;;10.37;56.66
6506;BME280;3286;49.858;8.768;2023-04-01T02:43:48;97527.41;;;10.81;55.59
6506;BME280;3286;49.858;8.768;2023-04-01T02:46:16;97532.66;;;10.75;55.75
6506;BME280;3286;49.858;8.768;2023-04-01T02:48:42;97525.09;;;11.00;55.25
6506;BME280;3286;49.858;8.768;2023-04-01T02:51:09;97532.28;;;11.55;53.67
6506;BME280;3286;49.858;8.768;2023-04-01T02:53:36;97525.78;;;10.52;55.71
6506;BME280;3286;49.858;8.768;2023-04-01T02:56:03;97533.66;;;11.44;53.73
6506;BME280;3286;49.858;8.768;2023-04-01T02:58:30;97520.28;;;11.10;54.07
6506;BME280;3286;49.858;8.768;2023-04-01T03:00:58;97543.31;;;10.88;55.51
6506;BME280;3286;49.858;8.768;2023-04-01T03:03:25;97527.66;;;10.86;55.00
6506;BME280;3286;49.858;8.768;2023-04-01T03:05:52;97521.66;;;10.71;55.44
6506;BME280;3286;49.858;8.768;2023-04-01T03:08:20;97518.91;;;11.21;54.61
6506;BME280;3286;49.858;8.768;2023-04-01T03:10:47;97519.38;;;11.32;53.79
6506;BME280;3286;49.858;8.768;2023-04-01T03:13:13;97526.19;;;11.19;54.18
6506;BME280;3286;49.858;8.768;2023-04-01T03:15:40;97531.97;;;11.36;54.08
6506;BME280;3286;49.858;8.768;2023-04-01T03:18:08;97525.88;;;10.94;54.99
6506;BME280;3286;49.858;8.768;2023-04-01T03:20:35;97525.34;;;10.77;55.91
6506;BME280;3286;49.858;8.768;2023-04-01T03:23:01;97531.75;;;11.24;54.54
6506;BME280;3286;49.858;8.768;2023-04-01T03:25:28;97527.72;;;10.65;56.42
6506;BME280;3286;49.858;8.768;2023-04-01T03:27:55;97524.47;;;10.98;54.97
6506;BME280;3286;49.858;8.768;2023-04-01T03:30:24;97530.88;;;10.82;56.26
6506;BME280;3286;49.858;8.768;2023-04-01T03:32:51;97535.44;;;10.66;56.67
6506;BME280;3286;49.858;8.768;2023-04-01T03:35:19;97535.00;;;10.91;56.14
6506;BME280;3286;49.858;8.768;2023-04-01T03:37:46;97527.59;;;10.51;57.40
6506;BME280;3286;49.858;8.768;2023-04-01T03:40:12;97520.44;;;10.45;57.47
6506;BME280;3286;49.858;8.768;2023-04-01T03:42:39;97515.16;;;10.02;58.64
6506;BME280;3286;49.858;8.768;2023-04-01T03:45:06;97518.06;;;10.50;57.05
6506;BME280;3286;49.858;8.768;2023-04-01T03:47:33;97522.00;;;10.39;57.82
6506;BME280;3286;49.858;8.768;2023-04-01T03:49:59;97522.81;;;10.90;55.50
6506;BME280;3286;49.858;8.768;2023-04-01T03:52:27;97544.69;;;10.34;57.09
6506;BME280;3286;49.858;8.768;2023-04-01T03:54:54;97530.94;;;10.17;58.47
6506;BME280;3286;49.858;8.768;2023-04-01T03:57:21;97528.97;;;10.40;57.08
6506;BME280;3286;49.858;8.768;2023-04-01T03:59:48;97533.75;;;10.87;55.90
6506;BME280;3286;49.858;8.768;2023-04-01T04:02:15;97517.63;;;10.47;56.99
6506;BME280;3286;49.858;8.768;2023-04-01T04:04:41;97515.47;;;10.35;57.39
6506;BME280;3286;49.858;8.768;2023-04-01T04:07:08;97510.22;;;10.92;55.79
6506;BME280;3286;49.858;8.768;2023-04-01T04:09:36;97514.22;;;10.81;56.32
6506;BME280;3286;49.858;8.768;2023-04-01T04:12:03;97518.56;;;10.39;57.04
6506;BME280;3286;49.858;8.768;2023-04-01T04:14:30;97515.16;;;10.45;56.71
6506;BME280;3286;49.858;8.768;2023-04-01T04:16:57;97521.09;;;10.25;57.14
6506;BME280;3286;49.858;8.768;2023-04-01T04:19:24;97516.78;;;10.68;55.98
6506;BME280;3286;49.858;8.768;2023-04-01T04:21:50;97511.41;;;10.33;57.42
6506;BME280;3286;49.858;8.768;2023-04-01T04:24:17;97521.69;;;10.78;55.74
6506;BME280;3286;49.858;8.768;2023-04-01T04:26:45;97518.03;;;10.79;55.96
6506;BME280;3286;49.858;8.768;2023-04-01T04:29:11;97511.75;;;11.15;54.55
6506;BME280;3286;49.858;8.768;2023-04-01T04:31:38;97523.31;;;10.72;55.51
6506;BME280;3286;49.858;8.768;2023-04-01T04:34:04;97517.41;;;10.77;55.44
6506;BME280;3286;49.858;8.768;2023-04-01T04:36:31;97514.44;;;11.22;54.22
6506;BME280;3286;49.858;8.768;2023-04-01T04:38:58;97508.03;;;11.02;54.84
6506;BME280;3286;49.858;8.768;2023-04-01T04:41:27;97522.72;;;10.48;56.48
6506;BME280;3286;49.858;8.768;2023-04-01T04:43:56;97513.50;;;10.66;55.83
6506;BME280;3286;49.858;8.768;2023-04-01T04:46:24;97516.56;;;10.69;55.60
6506;BME280;3286;49.858;8.768;2023-04-01T04:48:50;97528.00;;;10.48;56.42
6506;BME280;3286;49.858;8.768;2023-04-01T04:51:19;97510.69;;;11.02;55.66
6506;BME280;3286;49.858;8.768;2023-04-01T04:53:46;97515.81;;;11.11;54.52
6506;BME280;3286;49.858;8.768;2023-04-01T04:56:13;97507.13;;;10.89;55.83
6506;BME280;3286;49.858;8.768;2023-04-01T04:58:43;97515.38;;;10.43;56.27
6506;BME280;3286;49.858;8.768;2023-04-01T05:01:13;97515.75;;;10.19;57.63
6506;BME280;3286;49.858;8.768;2023-04-01T05:03:40;97510.97;;;10.51;56.35
6506;BME280;3286;49.858;8.768;2023-04-01T05:06:08;97516.72;;;10.39;57.20
6506;BME280;3286;49.858;8.768;2023-04-01T05:08:35;97506.47;;;10.80;55.00
6506;BME280;3286;49.858;8.768;2023-04-01T05:11:03;97507.47;;;10.79;56.02
6506;BME280;3286;49.858;8.768;2023-04-01T05:13:29;97516.31;;;10.64;56.73
6506;BME280;3286;49.858;8.768;2023-04-01T05:15:56;97508.97;;;10.88;55.63
6506;BME280;3286;49.858;8.768;2023-04-01T05:18:24;97506.69;;;10.50;56.36
6506;BME280;3286;49.858;8.768;2023-04-01T05:20:52;97511.25;;;10.63;56.70
6506;BME280;3286;49.858;8.768;2023-04-01T05:23:21;97506.00;;;10.69;56.34
6506;BME280;3286;49.858;8.768;2023-04-01T05:25:48;97508.56;;;10.56;56.50
6506;BME280;3286;49.858;8.768;2023-04-01T05:28:15;97512.28;;;10.40;56.90
6506;BME280;3286;49.858;8.768;2023-04-01T05:30:41;97511.72;;;10.23;57.24
6506;BME280;3286;49.858;8.768;2023-04-01T05:33:09;97517.53;;;10.18;57.92
6506;BME280;3286;49.858;8.768;2023-04-01T05:35:37;97515.47;;;9.92;58.51
6506;BME280;3286;49.858;8.768;2023-04-01T05:38:05;97512.75;;;10.79;56.20
6506;BME280;3286;49.858;8.768;2023-04-01T05:40:33;97503.94;;;10.14;57.56
6506;BME280;3286;49.858;8.768;2023-04-01T05:42:59;97507.25;;;9.80;58.03
6506;BME280;3286;49.858;8.768;2023-04-01T05:45:27;97498.03;;;10.12;57.18
6506;BME280;3286;49.858;8.768;2023-04-01T05:47:53;97505.19;;;10.19;57.12
6506;BME280;3286;49.858;8.768;2023-04-01T05:50:20;97514.63;;;9.69;58.57
6506;BME280;3286;49.858;8.768;2023-04-01T05:52:48;97504.50;;;10.10;58.20
6506;BME280;3286;49.858;8.768;2023-04-01T05:55:15;97511.38;;;10.54;56.80
6506;BME280;3286;49.858;8.768;2023-04-01T05:57:41;97495.22;;;9.55;58.61
6506;BME280;3286;49.858;8.768;2023-04-01T06:00:09;97498.97;;;10.05;57.89
6506;BME280;3286;49.858;8.768;2023-04-01T06:02:36;97500.97;;;10.03;58.82
6506;BME280;3286;49.858;8.768;2023-04-01T06:05:13;97500.09;;;9.95;58.31
6506;BME280;3286;49.858;8.768;2023-04-01T06:07:41;97482.34;;;10.04;58.88
6506;BME280;3286;49.858;8.768;2023-04-01T06:10:17;97506.50;;;10.29;58.56
6506;BME280;3286;49.858;8.768;2023-04-01T06:13:00;97496.34;;;10.33;58.94
6506;BME280;3286;49.858;8.768;2023-04-01T06:15:39;97497.00;;;9.92;61.03
6506;BME280;3286;49.858;8.768;2023-04-01T06:18:27;97495.84;;;11.01;57.69
6506;BME280;3286;49.858;8.768;2023-04-01T06:21:06;97503.59;;;10.46;58.63
6506;BME280;3286;49.858;8.768;2023-04-01T06:23:50;97503.16;;;9.99;60.21
6506;BME280;3286;49.858;8.768;2023-04-01T06:26:25;97485.47;;;10.65;57.87
6506;BME280;3286;49.858;8.768;2023-04-01T06:32:29;97497.31;;;10.47;58.50
6506;BME280;3286;49.858;8.768;2023-04-01T06:35:27;97495.88;;;10.73;58.73
6506;BME280;3286;49.858;8.768;2023-04-01T06:38:30;97499.38;;;11.78;55.86
6506;BME280;3286;49.858;8.768;2023-04-01T06:44:09;97505.69;;;11.83;55.24
6506;BME280;3286;49.858;8.768;2023-04-01T06:46:44;97507.25;;;10.45;57.85
6506;BME280;3286;49.858;8.768;2023-04-01T06:49:25;97505.34;;;10.61;58.74
6506;BME280;3286;49.858;8.768;2023-04-01T06:52:00;97515.47;;;10.35;59.77
6506;BME280;3286;49.858;8.768;2023-04-01T06:54:31;97507.19;;;9.95;59.53
6506;BME280;3286;49.858;8.768;2023-04-01T06:57:03;97506.75;;;10.35;59.97
6506;BME280;3286;49.858;8.768;2023-04-01T06:59:35;97512.47;;;10.17;59.72
6506;BME280;3286;49.858;8.768;2023-04-01T07:02:09;97518.44;;;10.47;59.70
6506;BME280;3286;49.858;8.768;2023-04-01T07:04:40;97507.38;;;10.37;59.81
6506;BME280;3286;49.858;8.768;2023-04-01T07:07:15;97511.44;;;9.96;61.12
6506;BME280;3286;49.858;8.768;2023-04-01T07:09:48;97511.72;;;10.23;60.82
6506;BME280;3286;49.858;8.768;2023-04-01T07:12:32;97511.34;;;10.48;59.92
6506;BME280;3286;49.858;8.768;2023-04-01T07:15:05;97515.75;;;10.19;59.86
6506;BME280;3286;49.858;8.768;2023-04-01T07:17:39;97523.69;;;10.69;60.25
6506;BME280;3286;49.858;8.768;2023-04-01T07:20:15;97510.78;;;10.87;59.00
6506;BME280;3286;49.858;8.768;2023-04-01T07:22:45;97521.31;;;11.16;58.57
6506;BME280;3286;49.858;8.768;2023-04-01T07:25:17;97522.41;;;11.28;57.58
6506;BME280;3286;49.858;8.768;2023-04-01T07:27:45;97518.88;;;10.29;61.17
6506;BME280;3286;49.858;8.768;2023-04-01T07:30:16;97535.00;;;10.19;61.63
6506;BME280;3286;49.858;8.768;2023-04-01T07:32:47;97526.81;;;11.14;58.58
6506;BME280;3286;49.858;8.768;2023-04-01T07:35:24;97526.22;;;10.55;59.51
6506;BME280;3286;49.858;8.768;2023-04-01T07:38:12;97531.13;;;10.37;60.80
6506;BME280;3286;49.858;8.768;2023-04-01T07:40:46;97533.44;;;11.04;59.27
6506;BME280;3286;49.858;8.768;2023-04-01T07:43:26;97525.66;;;10.60;60.22
6506;BME280;3286;49.858;8.768;2023-04-01T07:46:03;97525.94;;;10.72;61.06
6506;BME280;3286;49.858;8.768;2023-04-01T07:48:38;97526.88;;;11.28;58.76
6506;BME280;3286;49.858;8.768;2023-04-01T07:51:10;97527.25;;;10.90;59.62
6506;BME280;3286;49.858;8.768;2023-04-01T07:53:45;97520.59;;;11.36;58.91
6506;BME280;3286;49.858;8.768;2023-04-01T07:56:18;97528.94;;;10.97;59.77
6506;BME280;3286;49.858;8.768;2023-04-01T07:58:54;97532.78;;;11.30;59.11
6506;BME280;3286;49.858;8.768;2023-04-01T08:01:32;97529.06;;;11.18;59.72
6506;BME280;3286;49.858;8.768;2023-04-01T08:04:16;97526.41;;;11.18;60.08
6506;BME280;3286;49.858;8.768;2023-04-01T08:06:50;97532.53;;;10.83;60.22
6506;BME280;3286;49.858;8.768;2023-04-01T08:09:25;97529.56;;;11.35;59.65
6506;BME280;3286;49.858;8.768;2023-04-01T08:12:04;97528.22;;;11.10;59.80
6506;BME280;3286;49.858;8.768;2023-04-01T08:14:46;97533.94;;;11.21;59.79
6506;BME280;3286;49.858;8.768;2023-04-01T08:17:20;97538.97;;;11.09;60.03
6506;BME280;3286;49.858;8.768;2023-04-01T08:19:59;97534.38;;;11.24;59.36
6506;BME280;3286;49.858;8.768;2023-04-01T08:22:34;97532.72;;;11.65;57.63
6506;BME280;3286;49.858;8.768;2023-04-01T08:25:05;97536.25;;;11.30;58.75
6506;BME280;3286;49.858;8.768;2023-04-01T08:27:35;97542.78;;;11.35;58.87
6506;BME280;3286;49.858;8.768;2023-04-01T08:30:06;97537.75;;;11.53;58.34
6506;BME280;3286;49.858;8.768;2023-04-01T08:32:45;97536.81;;;11.68;58.09
6506;BME280;3286;49.858;8.768;2023-04-01T08:35:18;97537.16;;;11.09;59.65
6506;BME280;3286;49.858;8.768;2023-04-01T08:37:48;97544.56;;;10.92;61.06
6506;BME280;3286;49.858;8.768;2023-04-01T08:40:52;97546.28;;;11.07;60.95
6506;BME280;3286;49.858;8.768;2023-04-01T08:46:56;97565.38;;;11.09;61.40
6506;BME280;3286;49.858;8.768;2023-04-01T08:49:57;97555.84;;;11.50;60.69
6506;BME280;3286;49.858;8.768;2023-04-01T08:52:33;97561.31;;;11.48;60.53
6506;BME280;3286;49.858;8.768;2023-04-01T08:58:02;97556.25;;;11.47;60.35
6506;BME280;3286;49.858;8.768;2023-04-01T09:00:43;97568.25;;;11.49;60.63
6506;BME280;3286;49.858;8.768;2023-04-01T09:03:37;97560.19;;;11.22;61.54
6506;BME280;3286;49.858;8.768;2023-04-01T09:06:31;97566.13;;;12.69;58.26
6506;BME280;3286;49.858;8.768;2023-04-01T09:09:24;97564.66;;;12.39;58.42
6506;BME280;3286;49.858;8.768;2023-04-01T09:12:15;97548.97;;;12.24;59.23
6506;BME280;3286;49.858;8.768;2023-04-01T09:15:14;97558.66;;;11.97;59.76
6506;BME280;3286;49.858;8.768;2023-04-01T09:17:53;97559.94;;;12.08;59.96
6506;BME280;3286;49.858;8.768;2023-04-01T09:20:45;97560.53;;;12.10;60.26
6506;BME280;3286;49.858;8.768;2023-04-01T09:23:51;97568.34;;;12.45;59.25
6506;BME280;3286;49.858;8.768;2023-04-01T09:26:50;97582.72;;;11.53;61.78
6506;BME280;3286;49.858;8.768;2023-04-01T09:29:38;97578.66;;;11.57;61.50
6506;BME280;3286;49.858;8.768;2023-04-01T09:32:19;97580.50;;;12.19;60.72
6506;BME280;3286;49.858;8.768;2023-04-01T09:34:53;97581.63;;;11.89;61.00
6506;BME280;3286;49.858;8.768;2023-04-01T09:37:26;97585.03;;;12.39;59.98
6506;BME280;3286;49.858;8.768;2023-04-01T09:40:17;97583.34;;;12.11;61.64
6506;BME280;3286;49.858;8.768;2023-04-01T09:42:53;97581.75;;;12.16;61.65
6506;BME280;3286;49.858;8.768;2023-04-01T09:45:42;97591.19;;;12.73;59.29
6506;BME280;3286;49.858;8.768;2023-04-01T09:48:21;97591.50;;;12.09;60.36
6506;BME280;3286;49.858;8.768;2023-04-01T09:51:01;97595.44;;;12.74;58.90
6506;BME280;3286;49.858;8.768;2023-04-01T09:53:54;97596.88;;;12.70;59.80
6506;BME280;3286;49.858;8.768;2023-04-01T09:59:57;97596.84;;;12.29;61.49
6506;BME280;3286;49.858;8.768;2023-04-01T10:03:11;97593.19;;;12.30;61.60
6506;BME280;3286;49.858;8.768;2023-04-01T10:09:09;97599.19;;;11.55;64.44
6506;BME280;3286;49.858;8.768;2023-04-01T10:17:59;97602.22;;;11.45;65.16
6506;BME280;3286;49.858;8.768;2023-04-01T10:20:55;97608.13;;;11.54;64.82
6506;BME280;3286;49.858;8.768;2023-04-01T10:26:47;97607.13;;;11.49;63.78
6506;BME280;3286;49.858;8.768;2023-04-01T10:29:32;97604.25;;;11.43;64.52
6506;BME280;3286;49.858;8.768;2023-04-01T10:35:29;97602.75;;;12.38;62.61
6506;BME280;3286;49.858;8.768;2023-04-01T10:38:28;97605.41;;;12.31;62.70
6506;BME280;3286;49.858;8.768;2023-04-01T10:41:34;97601.16;;;12.51;62.74
6506;BME280;3286;49.858;8.768;2023-04-01T10:44:40;97607.66;;;12.55;62.27
6506;BME280;3286;49.858;8.768;2023-04-01T10:47:32;97599.09;;;12.46;61.75
6506;BME280;3286;49.858;8.768;2023-04-01T10:50:40;97607.44;;;13.24;60.38
6506;BME280;3286;49.858;8.768;2023-04-01T10:53:34;97594.44;;;12.95;60.86
6506;BME280;3286;49.858;8.768;2023-04-01T10:59:41;97599.28;;;12.38;62.47
6506;BME280;3286;49.858;8.768;2023-04-01T11:09:26;97609.47;;;12.27;63.25
6506;BME280;3286;49.858;8.768;2023-04-01T11:15:31;97613.16;;;12.40;63.43
6506;BME280;3286;49.858;8.768;2023-04-01T11:18:36;97609.91;;;12.51;62.54
6506;BME280;3286;49.858;8.768;2023-04-01T11:25:00;97619.66;;;12.30;63.47
6506;BME280;3286;49.858;8.768;2023-04-01T11:27:42;97613.53;;;12.30;63.43
6506;BME280;3286;49.858;8.768;2023-04-01T11:30:28;97621.34;;;12.85;62.43
6506;BME280;3286;49.858;8.768;2023-04-01T11:33:02;97616.94;;;12.17;64.36
6506;BME280;3286;49.858;8.768;2023-04-01T11:35:57;97617.63;;;12.39;63.87
6506;BME280;3286;49.858;8.768;2023-04-01T11:38:48;97625.41;;;12.61;63.26
6506;BME280;3286;49.858;8.768;2023-04-01T11:41:27;97620.06;;;12.34;63.35
6506;BME280;3286;49.858;8.768;2023-04-01T11:44:11;97619.25;;;12.47;64.37
6506;BME280;3286;49.858;8.768;2023-04-01T11:46:49;97616.84;;;13.06;61.75
6506;BME280;3286;49.858;8.768;2023-04-01T11:49:29;97631.41;;;12.21;63.05
6506;BME280;3286;49.858;8.768;2023-04-01T11:52:17;97632.72;;;12.52;63.72
6506;BME280;3286;49.858;8.768;2023-04-01T11:54:59;97638.75;;;11.07;67.03
6506;BME280;3286;49.858;8.768;2023-04-01T11:57:43;97626.75;;;12.16;65.14
6506;BME280;3286;49.858;8.768;2023-04-01T12:00:37;97637.16;;;12.31;64.15
6506;BME280;3286;49.858;8.768;2023-04-01T12:03:26;97646.13;;;12.37;64.04
6506;BME280;3286;49.858;8.768;2023-04-01T12:06:02;97642.00;;;12.21;64.11
6506;BME280;3286;49.858;8.768;2023-04-01T12:08:39;97649.84;;;12.56;63.39
6506;BME280;3286;49.858;8.768;2023-04-01T12:11:14;97643.22;;;12.12;63.60
6506;BME280;3286;49.858;8.768;2023-04-01T12:13:49;97651.03;;;12.34;65.05
6506;BME280;3286;49.858;8.768;2023-04-01T12:16:34;97636.50;;;12.16;64.76
6506;BME280;3286;49.858;8.768;2023-04-01T12:19:11;97635.19;;;12.54;64.20
6506;BME280;3286;49.858;8.768;2023-04-01T12:21:45;97635.41;;;12.86;62.86
6506;BME280;3286;49.858;8.768;2023-04-01T12:24:33;97631.53;;;13.15;62.70
6506;BME280;3286;49.858;8.768;2023-04-01T12:27:16;97640.47;;;13.21;61.82
6506;BME280;3286;49.858;8.768;2023-04-01T12:30:26;97632.94;;;13.25;61.97
6506;BME280;3286;49.858;8.768;2023-04-01T12:33:05;97635.16;;;13.28;63.36
6506;BME280;3286;49.858;8.768;2023-04-01T12:35:51;97641.28;;;13.35;62.17
6506;BME280;3286;49.858;8.768;2023-04-01T12:38:29;97638.97;;;13.66;60.98
6506;BME280;3286;49.858;8.768;2023-04-01T12:41:09;97640.25;;;13.56;61.02
6506;BME280;3286;49.858;8.768;2023-04-01T12:44:01;97645.13;;;12.45;63.07
6506;BME280;3286;49.858;8.768;2023-04-01T12:46:42;97647.84;;;13.06;63.13
6506;BME280;3286;49.858;8.768;2023-04-01T12:49:33;97645.81;;;12.94;62.42
6506;BME280;3286;49.858;8.768;2023-04-01T12:52:10;97646.19;;;12.84;62.99
6506;BME280;3286;49.858;8.768;2023-04-01T12:57:59;97647.03;;;13.18;61.68
6506;BME280;3286;49.858;8.768;2023-04-01T13:00:43;97641.28;;;13.42;61.37
6506;BME280;3286;49.858;8.768;2023-04-01T13:06:36;97667.56;;;12.56;63.47
6506;BME280;3286;49.858;8.768;2023-04-01T13:09:17;97657.88;;;12.14;64.67
6506;BME280;3286;49.858;8.768;2023-04-01T13:12:01;97651.69;;;12.56;63.68
6506;BME280;3286;49.858;8.768;2023-04-01T13:14:50;97654.34;;;12.69;62.26
6506;BME280;3286;49.858;8.768;2023-04-01T13:17:28;97666.28;;;12.25;63.75
6506;BME280;3286;49.858;8.768;2023-04-01T13:20:03;97667.78;;;12.48;64.01
6506;BME280;3286;49.858;8.768;2023-04-01T13:22:45;97683.22;;;12.44;63.56
6506;BME280;3286;49.858;8.768;2023-04-01T13:25:24;97692.16;;;12.36;64.52
6506;BME280;3286;49.858;8.768;2023-04-01T13:27:57;97695.19;;;11.84;65.89
6506;BME280;3286;49.858;8.768;2023-04-01T13:30:32;97689.22;;;11.76;66.61
6506;BME280;3286;49.858;8.768;2023-04-01T13:33:05;97694.66;;;11.32;68.32
6506;BME280;3286;49.858;8.768;2023-04-01T13:35:44;97690.03;;;11.12;67.77
6506;BME280;3286;49.858;8.768;2023-04-01T13:38:43;97692.25;;;11.66;67.17
6506;BME280;3286;49.858;8.768;2023-04-01T13:41:23;97687.94;;;12.55;64.37
6506;BME280;3286;49.858;8.768;2023-04-01T13:44:00;97688.56;;;12.51;64.16
6506;BME280;3286;49.858;8.768;2023-04-01T13:46:41;97689.31;;;12.38;64.98
6506;BME280;3286;49.858;8.768;2023-04-01T13:49:48;97683.78;;;12.26;65.40
6506;BME280;3286;49.858;8.768;2023-04-01T13:52:53;97690.91;;;12.19;64.17
6506;BME280;3286;49.858;8.768;2023-04-01T13:55:44;97686.03;;;12.29;64.81
6506;BME280;3286;49.858;8.768;2023-04-01T13:58:29;97684.91;;;12.03;65.47
6506;BME280;3286;49.858;8.768;2023-04-01T14:01:06;97692.59;;;12.40;63.94
6506;BME280;3286;49.858;8.768;2023-04-01T14:03:49;97698.22;;;11.46;67.92
6506;BME280;3286;49.858;8.768;2023-04-01T14:06:28;97697.88;;;11.91;65.55
6506;BME280;3286;49.858;8.768;2023-04-01T14:09:11;97687.16;;;12.75;64.41
6506;BME280;3286;49.858;8.768;2023-04-01T14:11:53;97686.78;;;13.05;62.61
6506;BME280;3286;49.858;8.768;2023-04-01T14:14:33;97698.59;;;13.02;62.83
6506;BME280;3286;49.858;8.768;2023-04-01T14:17:17;97693.09;;;13.31;61.36
6506;BME280;3286;49.858;8.768;2023-04-01T14:20:07;97695.72;;;12.84;62.75
6506;BME280;3286;49.858;8.768;2023-04-01T14:22:53;97700.97;;;12.50;63.66
6506;BME280;3286;49.858;8.768;2023-04-01T14:28:31;97704.69;;;12.83;61.97
6506;BME280;3286;49.858;8.768;2023-04-01T14:31:20;97702.28;;;12.88;62.69
6506;BME280;3286;49.858;8.768;2023-04-01T14:33:58;97718.31;;;12.59;63.43
6506;BME280;3286;49.858;8.768;2023-04-01T14:39:43;97707.75;;;12.86;62.43
6506;BME280;3286;49.858;8.768;2023-04-01T14:42:23;97716.03;;;12.43;64.27
6506;BME280;3286;49.858;8.768;2023-04-01T14:45:06;97716.94;;;12.15;63.65
6506;BME280;3286;49.858;8.768;2023-04-01T14:47:47;97717.66;;;12.44;63.96
6506;BME280;3286;49.858;8.768;2023-04-01T14:50:17;97715.16;;;11.87;64.93
6506;BME280;3286;49.858;8.768;2023-04-01T14:52:53;97721.34;;;12.56;63.39
6506;BME280;3286;49.858;8.768;2023-04-01T14:55:31;97718.19;;;13.01;61.73
6506;BME280;3286;49.858;8.768;2023-04-01T14:58:09;97729.63;;;11.98;63.88
6506;BME280;3286;49.858;8.768;2023-04-01T15:00:48;97732.78;;;12.64;62.76
6506;BME280;3286;49.858;8.768;2023-04-01T15:03:20;97743.19;;;12.10;63.99
6506;BME280;3286;49.858;8.768;2023-04-01T15:05:52;97743.88;;;11.90;64.71
6506;BME280;3286;49.858;8.768;2023-04-01T15:08:23;97741.13;;;12.60;62.82
6506;BME280;3286;49.858;8.768;2023-04-01T15:11:10;97741.84;;;12.27;62.27
6506;BME280;3286;49.858;8.768;2023-04-01T15:14:00;97739.56;;;12.86;61.13
6506;BME280;3286;49.858;8.768;2023-04-01T15:16:34;97736.94;;;13.07;61.29
6506;BME280;3286;49.858;8.768;2023-04-01T15:19:14;97744.63;;;12.19;64.23